createdAt,value
2017-10-18T00:02:23.650Z,79.00
2017-10-18T00:04:51.752Z,79.10
2017-10-18T00:07:19.872Z,79.30
2017-10-18T00:09:47.963Z,80.10
2017-10-18T00:12:16.080Z,81.10
2017-10-18T00:14:45.307Z,82.50
2017-10-18T00:19:43.929Z,80.90
2017-10-18T00:24:41.439Z,80.70
2017-10-18T00:29:38.925Z,81.70
2017-10-18T00:34:36.390Z,82.50
2017-10-18T00:37:04.908Z,81.20
2017-10-18T00:39:33.110Z,81.30
2017-10-18T00:42:01.516Z,82.30
2017-10-18T00:44:30.771Z,83.90
2017-10-18T00:46:59.263Z,84.10
2017-10-18T00:49:27.381Z,84.60
2017-10-18T00:51:56.750Z,83.70
2017-10-18T00:54:24.825Z,82.60
2017-10-18T00:56:53.710Z,82.00
2017-10-18T00:59:22.234Z,80.80
2017-10-18T01:04:19.720Z,79.20
2017-10-18T01:06:47.862Z,79.10
2017-10-18T01:09:15.962Z,79.50
2017-10-18T01:11:44.051Z,80.00
2017-10-18T01:14:12.586Z,79.30
2017-10-18T01:16:40.685Z,78.60
2017-10-18T01:19:09.583Z,78.40
2017-10-18T01:21:37.693Z,78.80
2017-10-18T01:24:05.812Z,78.80
2017-10-18T01:26:34.752Z,78.30
2017-10-18T01:29:02.821Z,75.70
2017-10-18T01:31:30.939Z,76.50
2017-10-18T01:36:28.432Z,77.50
2017-10-18T01:38:56.542Z,75.40
2017-10-18T01:41:26.185Z,76.10
2017-10-18T01:43:54.292Z,76.50
2017-10-18T01:46:23.545Z,77.00
2017-10-18T01:48:51.659Z,76.60
2017-10-18T01:51:19.788Z,76.60
2017-10-18T01:53:49.032Z,75.50
2017-10-18T01:56:18.651Z,74.80
2017-10-18T01:58:46.759Z,74.90
2017-10-18T02:01:15.468Z,74.30
2017-10-18T02:06:18.194Z,74.30
2017-10-18T02:13:45.007Z,73.50
2017-10-18T02:16:13.546Z,75.80
2017-10-18T02:18:41.731Z,75.20
2017-10-18T02:21:09.857Z,75.80
2017-10-18T02:23:37.947Z,74.50
2017-10-18T02:26:06.044Z,74.20
2017-10-18T02:28:34.157Z,74.70
2017-10-18T02:31:03.033Z,75.30
2017-10-18T02:33:31.165Z,74.80
2017-10-18T02:35:59.264Z,76.10
2017-10-18T02:38:27.370Z,74.10
2017-10-18T02:43:24.868Z,75.70
2017-10-18T02:45:52.999Z,75.20
2017-10-18T02:48:21.110Z,75.40
2017-10-18T02:50:49.243Z,75.10
2017-10-18T02:53:18.101Z,74.40
2017-10-18T02:55:46.967Z,73.90
2017-10-18T02:58:15.859Z,70.80
2017-10-18T03:00:43.996Z,72.00
2017-10-18T03:03:13.630Z,72.10
2017-10-18T03:05:41.769Z,75.80
2017-10-18T03:08:09.899Z,78.20
2017-10-18T03:10:38.784Z,77.30
2017-10-18T03:13:07.588Z,75.60
2017-10-18T03:15:36.523Z,74.50
2017-10-18T03:18:04.643Z,74.40
2017-10-18T03:20:33.539Z,74.10
2017-10-18T03:25:31.019Z,74.70
2017-10-18T03:27:59.903Z,77.00
2017-10-18T03:32:57.392Z,77.00
2017-10-18T03:35:26.267Z,75.30
2017-10-18T03:37:54.419Z,73.20
2017-10-18T03:40:22.507Z,76.60
2017-10-18T03:42:50.630Z,76.60
2017-10-18T03:45:18.755Z,76.10
2017-10-18T03:47:46.846Z,74.60
2017-10-18T03:50:15.748Z,75.50
2017-10-18T03:55:13.226Z,72.90
2017-10-18T03:57:42.123Z,73.00
2017-10-18T04:00:11.018Z,73.00
2017-10-18T04:02:39.107Z,72.20
2017-10-18T04:05:07.231Z,71.10
2017-10-18T04:10:04.705Z,71.80
2017-10-18T04:12:33.975Z,74.50
2017-10-18T04:15:02.088Z,73.70
2017-10-18T04:17:30.234Z,71.20
2017-10-18T04:19:58.317Z,72.30
2017-10-18T04:22:26.422Z,72.30
2017-10-18T04:24:54.545Z,70.90
2017-10-18T04:27:22.634Z,71.90
2017-10-18T04:29:50.786Z,72.50
2017-10-18T04:32:18.890Z,72.30
2017-10-18T04:34:46.977Z,77.00
2017-10-18T04:37:15.867Z,79.30
2017-10-18T04:39:44.757Z,79.50
2017-10-18T04:42:13.642Z,83.80
2017-10-18T04:47:11.132Z,81.10
2017-10-18T04:49:39.251Z,80.50
2017-10-18T04:52:07.338Z,78.30
2017-10-18T04:54:35.444Z,76.90
2017-10-18T04:57:03.569Z,75.30
2017-10-18T04:59:31.667Z,72.60
2017-10-18T05:01:59.772Z,73.00
2017-10-18T05:04:27.899Z,73.80
2017-10-18T05:06:56.003Z,74.80
2017-10-18T05:11:53.501Z,74.10
2017-10-18T05:14:21.594Z,74.00
2017-10-18T05:16:49.720Z,77.30
2017-10-18T05:19:18.578Z,77.90
2017-10-18T05:21:47.067Z,78.20
2017-10-18T05:26:44.512Z,79.10
2017-10-18T05:29:14.040Z,78.70
2017-10-18T05:31:42.122Z,78.00
2017-10-18T05:34:10.987Z,76.30
2017-10-18T05:36:39.074Z,76.60
2017-10-18T05:39:07.190Z,78.00
2017-10-18T05:41:35.274Z,79.80
2017-10-18T05:44:03.358Z,78.70
2017-10-18T05:46:31.469Z,78.50
2017-10-18T05:48:59.551Z,79.20
2017-10-18T05:51:27.637Z,80.20
2017-10-18T05:53:56.511Z,82.50
2017-10-18T05:56:24.591Z,83.30
2017-10-18T05:58:53.470Z,83.80
2017-10-18T06:01:22.044Z,84.50
2017-10-18T06:03:50.196Z,82.80
2017-10-18T06:06:19.112Z,82.90
2017-10-18T06:08:47.218Z,80.70
2017-10-18T06:11:16.155Z,81.20
2017-10-18T06:13:44.235Z,81.40
2017-10-18T06:16:12.320Z,81.50
2017-10-18T06:18:40.403Z,84.30
2017-10-18T06:21:08.527Z,82.50
2017-10-18T06:23:36.602Z,82.20
2017-10-18T06:26:04.697Z,81.00
2017-10-18T06:28:32.819Z,80.50
2017-10-18T06:31:01.302Z,80.30
2017-10-18T06:33:29.787Z,79.80
2017-10-18T06:35:57.899Z,79.40
2017-10-18T06:38:25.994Z,78.30
2017-10-18T06:40:54.083Z,81.00
2017-10-18T06:43:22.967Z,83.00
2017-10-18T06:45:51.050Z,80.00
2017-10-18T06:48:19.902Z,82.00
2017-10-18T06:50:48.792Z,80.00
2017-10-18T06:53:16.878Z,78.50
2017-10-18T06:55:44.963Z,78.00
2017-10-18T06:58:13.070Z,79.50
2017-10-18T07:00:41.183Z,78.90
2017-10-18T07:03:09.267Z,77.80
2017-10-18T07:05:37.379Z,80.10
2017-10-18T07:10:34.880Z,78.10
2017-10-18T07:13:02.968Z,77.00
2017-10-18T07:15:31.079Z,75.30
2017-10-18T07:17:59.156Z,76.50
2017-10-18T07:20:28.026Z,76.10
2017-10-18T07:22:56.115Z,75.50
2017-10-18T07:25:24.218Z,74.70
2017-10-18T07:27:52.323Z,73.60
2017-10-18T07:30:20.434Z,71.50
2017-10-18T07:32:48.538Z,73.00
2017-10-18T07:35:16.630Z,72.10
2017-10-18T07:37:44.734Z,69.00
2017-10-18T07:40:12.818Z,68.20
2017-10-18T07:42:40.931Z,65.10
2017-10-18T07:45:09.015Z,66.60
2017-10-18T07:47:37.866Z,66.40
2017-10-18T07:50:06.736Z,66.10
2017-10-18T07:52:34.823Z,66.80
2017-10-18T07:55:04.067Z,65.10
2017-10-18T07:57:32.939Z,62.00
2017-10-18T08:00:01.047Z,60.80
2017-10-18T08:02:29.162Z,59.20
2017-10-18T08:04:57.238Z,55.60
2017-10-18T08:07:26.115Z,53.00
2017-10-18T08:09:54.205Z,54.10
2017-10-18T08:12:23.062Z,52.60
2017-10-18T08:14:51.175Z,51.40
2017-10-18T08:17:20.027Z,51.30
2017-10-18T08:19:48.114Z,50.60
2017-10-18T08:22:16.214Z,50.50
2017-10-18T08:24:44.732Z,51.90
2017-10-18T08:27:12.834Z,49.30
2017-10-18T08:29:40.928Z,48.20
2017-10-18T08:32:09.801Z,46.80
2017-10-18T08:34:37.886Z,46.90
2017-10-18T08:37:06.739Z,45.30
2017-10-18T08:39:34.842Z,45.30
2017-10-18T08:42:03.703Z,44.10
2017-10-18T08:44:31.810Z,43.80
2017-10-18T08:47:00.670Z,42.30
2017-10-18T08:49:29.154Z,41.20
2017-10-18T08:51:57.262Z,39.90
2017-10-18T08:54:26.486Z,38.00
2017-10-18T08:56:54.566Z,35.90
2017-10-18T08:59:22.670Z,33.00
2017-10-18T09:01:50.791Z,33.40
2017-10-18T09:04:19.270Z,34.20
2017-10-18T09:09:16.747Z,35.20
2017-10-18T09:11:44.834Z,33.60
2017-10-18T09:14:12.919Z,32.60
2017-10-18T09:16:41.032Z,32.60
2017-10-18T09:19:09.122Z,30.90
2017-10-18T09:21:38.718Z,29.70
2017-10-18T09:24:06.818Z,29.30
2017-10-18T09:26:34.930Z,29.40
2017-10-18T09:29:03.018Z,28.80
2017-10-18T09:31:31.107Z,28.20
2017-10-18T09:33:59.980Z,27.70
2017-10-18T09:36:28.082Z,27.90
2017-10-18T09:38:56.935Z,28.60
2017-10-18T09:41:25.039Z,27.40
2017-10-18T09:43:53.894Z,26.60
2017-10-18T09:46:22.007Z,26.00
2017-10-18T09:48:50.856Z,26.50
2017-10-18T09:51:18.934Z,26.80
2017-10-18T09:53:47.047Z,25.90
2017-10-18T09:56:15.931Z,25.60
2017-10-18T09:58:44.880Z,25.20
2017-10-18T10:01:12.927Z,24.70
2017-10-18T10:03:41.038Z,24.80
2017-10-18T10:06:09.895Z,25.80
2017-10-18T10:08:37.980Z,28.60
2017-10-18T10:11:06.090Z,29.40
2017-10-18T10:13:34.574Z,29.40
2017-10-18T10:16:02.667Z,29.70
2017-10-18T10:18:31.539Z,28.60
2017-10-18T10:20:59.631Z,28.20
2017-10-18T10:23:29.179Z,28.50
2017-10-18T10:25:58.031Z,25.50
2017-10-18T10:28:26.878Z,26.30
2017-10-18T10:30:54.988Z,26.20
2017-10-18T10:33:23.862Z,26.50
2017-10-18T10:35:52.735Z,26.90
2017-10-18T10:38:20.842Z,25.90
2017-10-18T10:40:50.067Z,26.60
2017-10-18T10:43:18.570Z,26.30
2017-10-18T10:45:46.659Z,26.50
2017-10-18T10:48:14.752Z,26.10
2017-10-18T10:53:13.466Z,23.70
2017-10-18T10:55:41.550Z,22.40
2017-10-18T10:58:09.671Z,21.40
2017-10-18T11:00:37.754Z,20.60
2017-10-18T11:03:05.869Z,19.90
2017-10-18T11:05:33.963Z,19.40
2017-10-18T11:08:02.055Z,19.30
2017-10-18T11:10:30.158Z,20.00
2017-10-18T11:12:58.246Z,20.50
2017-10-18T11:17:55.822Z,20.30
2017-10-18T11:20:24.679Z,21.20
2017-10-18T11:22:52.782Z,19.90
2017-10-18T11:25:21.646Z,18.50
2017-10-18T11:27:50.135Z,16.90
2017-10-18T11:30:19.729Z,16.20
2017-10-18T11:32:47.834Z,15.20
2017-10-18T11:35:16.686Z,15.20
2017-10-18T11:37:44.814Z,14.40
2017-10-18T11:40:12.908Z,14.10
2017-10-18T11:42:40.990Z,13.60
2017-10-18T11:45:09.094Z,13.40
2017-10-18T11:47:37.183Z,13.10
2017-10-18T11:50:06.063Z,13.90
2017-10-18T11:52:34.154Z,13.70
2017-10-18T11:55:03.007Z,14.10
2017-10-18T11:57:31.106Z,13.40
2017-10-18T12:00:00.350Z,14.20
2017-10-18T12:02:28.438Z,14.50
2017-10-18T12:04:56.545Z,13.40
2017-10-18T12:07:25.024Z,12.50
2017-10-18T12:09:53.127Z,12.10
2017-10-18T12:12:21.978Z,11.80
2017-10-18T12:14:50.094Z,12.10
2017-10-18T12:17:18.570Z,11.30
2017-10-18T12:19:46.685Z,12.30
2017-10-18T12:22:14.771Z,12.30
2017-10-18T12:24:44.004Z,11.80
2017-10-18T12:27:12.510Z,11.10
2017-10-18T12:29:40.603Z,11.50
2017-10-18T12:32:08.691Z,11.10
2017-10-18T12:34:36.803Z,11.30
2017-10-18T12:37:05.655Z,11.80
2017-10-18T12:39:34.515Z,13.10
2017-10-18T12:42:02.627Z,13.90
2017-10-18T12:44:30.747Z,15.70
2017-10-18T12:46:58.838Z,14.20
2017-10-18T12:49:26.944Z,13.50
2017-10-18T12:51:55.037Z,12.80
2017-10-18T12:54:23.886Z,15.00
2017-10-18T12:56:52.778Z,14.80
2017-10-18T12:59:20.891Z,12.90
2017-10-18T13:01:48.954Z,12.10
2017-10-18T13:04:17.071Z,12.70
2017-10-18T13:06:45.202Z,12.10
2017-10-18T13:09:13.326Z,11.90
2017-10-18T13:11:42.555Z,12.30
2017-10-18T13:14:10.666Z,11.40
2017-10-18T13:16:39.515Z,12.50
2017-10-18T13:19:07.618Z,12.90
2017-10-18T13:21:36.106Z,12.90
2017-10-18T13:24:04.991Z,14.80
2017-10-18T13:26:34.211Z,15.10
2017-10-18T13:29:02.778Z,15.60
2017-10-18T13:31:31.254Z,16.80
2017-10-18T13:34:00.131Z,17.40
2017-10-18T13:36:28.630Z,16.40
2017-10-18T13:38:57.488Z,16.90
2017-10-18T13:41:25.602Z,15.40
2017-10-18T13:43:54.459Z,15.00
2017-10-18T13:46:22.546Z,14.40
2017-10-18T13:48:50.646Z,13.20
2017-10-18T13:51:18.747Z,13.70
2017-10-18T13:53:46.827Z,13.50
2017-10-18T13:56:14.942Z,12.80
2017-10-18T13:58:43.027Z,12.80
2017-10-18T14:01:11.875Z,12.70
2017-10-18T14:03:39.995Z,12.90
2017-10-18T14:06:08.870Z,14.80
2017-10-18T14:08:37.722Z,17.80
2017-10-18T14:11:05.806Z,20.70
2017-10-18T14:13:33.915Z,24.70
2017-10-18T14:16:02.771Z,26.00
2017-10-18T14:18:30.874Z,27.40
2017-10-18T14:20:59.750Z,28.50
2017-10-18T14:23:29.374Z,28.50
2017-10-18T14:25:59.475Z,29.40
2017-10-18T14:28:27.558Z,30.00
2017-10-18T14:30:57.186Z,30.30
2017-10-18T14:33:25.291Z,31.10
2017-10-18T14:35:53.959Z,31.30
2017-10-18T14:38:22.066Z,32.10
2017-10-18T14:40:50.151Z,32.00
2017-10-18T14:43:18.259Z,31.80
2017-10-18T14:45:46.738Z,33.40
2017-10-18T14:48:15.230Z,33.80
2017-10-18T14:50:44.098Z,34.80
2017-10-18T14:53:13.331Z,34.50
2017-10-18T14:55:41.419Z,34.50
2017-10-18T14:58:09.528Z,35.00
2017-10-18T15:00:37.610Z,35.50
2017-10-18T15:03:06.491Z,35.60
2017-10-18T15:05:36.107Z,35.30
2017-10-18T15:08:04.206Z,36.00
2017-10-18T15:10:32.299Z,36.30
2017-10-18T15:13:00.406Z,36.80
2017-10-18T15:15:28.490Z,37.40
2017-10-18T15:17:56.599Z,37.70
2017-10-18T15:20:25.080Z,37.80
2017-10-18T15:22:53.186Z,37.90
2017-10-18T15:25:21.287Z,38.10
2017-10-18T15:27:49.421Z,37.70
2017-10-18T15:30:17.495Z,37.90
2017-10-18T15:32:46.373Z,38.40
2017-10-18T15:35:14.479Z,39.30
2017-10-18T15:37:42.562Z,40.10
2017-10-18T15:40:11.063Z,41.10
2017-10-18T15:42:39.910Z,42.50
2017-10-18T15:45:08.007Z,42.20
2017-10-18T15:47:36.115Z,43.70
2017-10-18T15:50:04.962Z,44.90
2017-10-18T15:52:33.034Z,45.20
2017-10-18T15:55:01.151Z,44.20
2017-10-18T15:57:29.994Z,46.30
2017-10-18T15:59:58.079Z,46.20
2017-10-18T16:02:26.174Z,47.60
2017-10-18T16:04:55.025Z,48.70
2017-10-18T16:07:23.137Z,49.20
2017-10-18T16:09:51.975Z,50.10
2017-10-18T16:12:20.074Z,49.90
2017-10-18T16:14:48.179Z,50.30
2017-10-18T16:17:17.071Z,51.60
2017-10-18T16:19:45.919Z,51.60
2017-10-18T16:22:13.998Z,51.50
2017-10-18T16:24:42.091Z,51.60
2017-10-18T16:27:10.200Z,52.00
2017-10-18T16:29:38.674Z,50.90
2017-10-18T16:32:06.757Z,52.30
2017-10-18T16:34:34.870Z,52.60
2017-10-18T16:37:02.951Z,53.00
2017-10-18T16:39:31.051Z,53.70
2017-10-18T16:41:59.924Z,54.50
2017-10-18T16:44:28.007Z,53.70
2017-10-18T16:46:56.984Z,54.70
2017-10-18T16:49:25.075Z,53.90
2017-10-18T16:51:53.918Z,55.20
2017-10-18T16:54:22.021Z,55.40
2017-10-18T16:56:50.874Z,57.70
2017-10-18T16:59:19.000Z,58.00
2017-10-18T17:01:47.862Z,58.10
2017-10-18T17:04:15.955Z,57.10
2017-10-18T17:06:44.852Z,57.20
2017-10-18T17:09:13.715Z,56.50
2017-10-18T17:11:41.888Z,55.60
2017-10-18T17:14:09.959Z,55.30
2017-10-18T17:16:38.859Z,55.90
2017-10-18T17:19:06.952Z,56.20
2017-10-18T17:21:35.816Z,56.90
2017-10-18T17:24:04.714Z,55.70
2017-10-18T17:26:32.791Z,56.30
2017-10-18T17:29:01.295Z,56.30
2017-10-18T17:31:30.152Z,55.80
2017-10-18T17:33:58.284Z,56.40
2017-10-18T17:36:26.395Z,56.00
2017-10-18T17:38:54.598Z,56.20
2017-10-18T17:41:23.103Z,56.20
2017-10-18T17:43:51.212Z,56.70
2017-10-18T17:46:19.297Z,57.00
2017-10-18T17:48:47.442Z,58.20
2017-10-18T17:51:15.547Z,58.80
2017-10-18T17:56:12.999Z,60.40
2017-10-18T17:58:41.086Z,60.60
2017-10-18T18:01:09.594Z,62.00
2017-10-18T18:03:39.210Z,61.80
2017-10-18T18:06:07.711Z,62.50
2017-10-18T18:08:35.801Z,62.50
2017-10-18T18:11:03.902Z,62.40
2017-10-18T18:13:31.995Z,63.10
2017-10-18T18:16:00.879Z,66.10
2017-10-18T18:18:28.982Z,65.00
2017-10-18T18:20:58.236Z,64.90
2017-10-18T18:23:26.747Z,64.00
2017-10-18T18:25:56.543Z,67.10
2017-10-18T18:28:25.827Z,65.00
2017-10-18T18:30:54.732Z,64.30
2017-10-18T18:33:22.876Z,67.60
2017-10-18T18:35:52.230Z,68.70
2017-10-18T18:38:21.133Z,67.00
2017-10-18T18:45:49.561Z,66.20
2017-10-18T18:48:19.366Z,66.40
2017-10-18T18:50:49.130Z,66.90
2017-10-18T18:53:17.253Z,69.60
2017-10-18T18:55:46.475Z,68.60
2017-10-18T18:58:15.368Z,68.30
2017-10-18T19:00:44.231Z,70.50
2017-10-18T19:03:13.525Z,69.00
2017-10-18T19:05:42.428Z,69.30
2017-10-18T19:13:15.636Z,62.60
2017-10-18T19:15:44.949Z,63.60
2017-10-18T19:20:43.582Z,62.20
2017-10-18T19:23:11.723Z,62.30
2017-10-18T19:25:39.836Z,62.00
2017-10-18T19:28:07.929Z,61.40
2017-10-18T19:30:36.854Z,61.20
2017-10-18T19:33:05.700Z,64.30
2017-10-18T19:35:34.210Z,63.10
2017-10-18T19:38:02.323Z,62.80
2017-10-18T19:40:30.469Z,63.60
2017-10-18T19:42:59.328Z,63.80
2017-10-18T19:45:27.411Z,64.50
2017-10-18T19:47:56.809Z,63.70
2017-10-18T19:50:25.267Z,63.20
2017-10-18T19:52:53.366Z,62.90
2017-10-18T19:55:21.945Z,63.20
2017-10-18T19:57:50.128Z,63.40
2017-10-18T20:02:48.740Z,62.80
2017-10-18T20:05:18.341Z,62.80
2017-10-18T20:07:46.437Z,62.80
2017-10-18T20:10:16.053Z,62.70
2017-10-18T20:15:14.319Z,63.30
2017-10-18T20:17:42.418Z,62.30
2017-10-18T20:20:10.519Z,62.10
2017-10-18T20:22:38.631Z,62.90
2017-10-18T20:25:07.516Z,62.40
2017-10-18T20:27:35.632Z,61.10
2017-10-18T20:30:03.740Z,61.70
2017-10-18T20:32:31.830Z,61.90
2017-10-18T20:34:59.928Z,62.50
2017-10-18T20:39:57.411Z,62.70
2017-10-18T20:42:26.292Z,62.70
2017-10-18T20:44:54.379Z,62.20
2017-10-18T20:49:51.914Z,62.50
2017-10-18T20:52:20.011Z,62.50
2017-10-18T20:54:48.122Z,62.00
2017-10-18T20:57:16.258Z,61.20
2017-10-18T20:59:45.868Z,61.40
2017-10-18T21:02:13.962Z,61.70
2017-10-18T21:04:42.074Z,61.70
2017-10-18T21:07:10.178Z,61.30
2017-10-18T21:09:38.320Z,61.10
2017-10-18T21:12:06.388Z,61.20
2017-10-18T21:14:35.102Z,61.70
2017-10-18T21:17:04.734Z,61.00
2017-10-18T21:19:34.042Z,62.00
2017-10-18T21:22:02.294Z,61.70
2017-10-18T21:24:30.809Z,61.70
2017-10-18T21:26:58.905Z,61.70
2017-10-18T21:29:27.793Z,61.90
2017-10-18T21:31:55.919Z,63.10
2017-10-18T21:34:24.054Z,63.50
2017-10-18T21:36:53.678Z,63.30
2017-10-18T21:39:23.115Z,65.40
2017-10-18T21:41:51.268Z,65.30
2017-10-18T21:44:19.358Z,64.60
2017-10-18T21:46:48.231Z,64.80
2017-10-18T21:49:16.357Z,65.10
2017-10-18T21:51:44.444Z,64.50
2017-10-18T21:54:13.343Z,64.00
2017-10-18T21:56:42.957Z,64.10
2017-10-18T21:59:11.050Z,64.90
2017-10-18T22:01:39.166Z,65.20
2017-10-18T22:04:07.259Z,65.80
2017-10-18T22:06:35.366Z,63.70
2017-10-18T22:09:04.251Z,64.50
2017-10-18T22:11:32.773Z,62.70
2017-10-18T22:14:00.878Z,64.40
2017-10-18T22:16:29.364Z,65.10
2017-10-18T22:18:59.464Z,64.80
2017-10-18T22:21:27.558Z,65.00
2017-10-18T22:23:55.670Z,68.90
2017-10-18T22:26:23.782Z,67.80
2017-10-18T22:28:53.036Z,68.60
2017-10-18T22:31:21.124Z,67.70
2017-10-18T22:33:49.990Z,67.80
2017-10-18T22:36:18.102Z,68.60
2017-10-18T22:38:46.209Z,67.60
2017-10-18T22:41:14.316Z,68.00
2017-10-18T22:46:11.801Z,66.30
2017-10-18T22:51:09.280Z,65.40
2017-10-18T22:53:37.764Z,65.70
2017-10-18T22:56:05.876Z,66.30
2017-10-18T22:58:34.009Z,67.10
2017-10-18T23:01:03.235Z,66.60
2017-10-18T23:03:31.343Z,68.30
2017-10-18T23:05:59.464Z,69.00
2017-10-18T23:08:27.963Z,69.50
2017-10-18T23:10:56.055Z,69.40
2017-10-18T23:13:24.175Z,69.70
2017-10-18T23:15:53.435Z,69.70
2017-10-18T23:18:21.533Z,70.50
2017-10-18T23:20:49.651Z,69.60
2017-10-18T23:23:17.766Z,69.00
2017-10-18T23:25:45.897Z,67.70
2017-10-18T23:28:14.003Z,68.80
2017-10-18T23:30:42.101Z,70.60
2017-10-18T23:33:10.200Z,71.10
2017-10-18T23:38:07.686Z,69.50
2017-10-18T23:40:35.770Z,68.90
2017-10-18T23:45:33.330Z,66.70
2017-10-18T23:48:02.568Z,66.80
2017-10-18T23:50:31.817Z,66.00
2017-10-18T23:55:29.315Z,68.60
